KNGP Airport (Corpus Christi Nas/Truax Field) Information

FAA: NGP - ICAO: KNGP

KNGP Airport Location

State Texas
County Nueces
City Corpus Christi
KNGP Airport is 6 miles southeast of Corpus Christi, TX.
Latitude 27-41-33.7220N
Longitude 097-17-25.3580W
Elevation 18ft

KNGP Airport METARs

METAR KNGP 071925Z 16015KT 10SM SCT015 SCT030 28/23 A3013 RMK AO2 T02830228 $
Altimeter 30.13"
Temperature 28.3°C (82.9°F)
Wind 160° at 15KT
Clouds scattered at 1,500ft scattered at 3,000ft
Visibility 10.0mi
Time observed: 2022-12-07T19:25:00Z

KNGP Airport Details

Status Operational
Activation July 1943
Ownership Military - Navy
Usage Private
Chart BROWNSVILLE
ATC on-site Yes
Beacon schedule sunset-sunrise
Beacon color split clear green

KNGP Airport Contacts

Owner US NAVY
Owner address OCEANOGRAPHIC OFC-CODE 3142, WASHINGTON, DC 20373
Owner phone N/A
Manager GERRY SHORE
Manager address PO BOX 479, INEZ, TX 77968
Manager phone 361-676-0209

KNGP Airport (Corpus Christi Nas/Truax Field) Radio Frequencies

KNGP (Airport) Radio Frequencies

UNICOM N/A
Common traffic advisory frequency (CTAF) 134.85